createdAt,value
2018-12-17T00:00:00.254Z,5.00
2018-12-17T00:02:28.638Z,5.40
2018-12-17T00:04:56.686Z,5.30
2018-12-17T00:07:25.058Z,5.30
2018-12-17T00:09:53.154Z,5.40
2018-12-17T00:12:21.201Z,5.50
2018-12-17T00:14:49.492Z,5.10
2018-12-17T00:17:17.606Z,5.20
2018-12-17T00:19:45.986Z,5.50
2018-12-17T00:22:14.062Z,5.60
2018-12-17T00:24:42.118Z,5.60
2018-12-17T00:27:10.169Z,5.40
2018-12-17T00:29:38.343Z,5.20
2018-12-17T00:32:06.501Z,5.20
2018-12-17T00:34:34.602Z,5.00
2018-12-17T00:37:02.707Z,5.20
2018-12-17T00:39:30.786Z,5.20
2018-12-17T00:41:58.988Z,5.10
2018-12-17T00:44:27.013Z,5.40
2018-12-17T00:46:55.303Z,5.20
2018-12-17T00:49:23.329Z,5.10
2018-12-17T00:51:51.337Z,5.50
2018-12-17T00:54:19.542Z,5.50
2018-12-17T00:56:47.594Z,5.10
2018-12-17T00:59:15.642Z,5.30
2018-12-17T01:01:43.709Z,5.50
2018-12-17T01:04:11.744Z,5.50
2018-12-17T01:06:39.793Z,5.20
2018-12-17T01:09:07.867Z,5.10
2018-12-17T01:11:35.980Z,5.50
2018-12-17T01:14:04.119Z,5.70
2018-12-17T01:16:32.196Z,5.60
2018-12-17T01:19:00.215Z,5.80
2018-12-17T01:24:16.076Z,5.90
2018-12-17T01:26:44.073Z,6.00
2018-12-17T01:29:12.103Z,5.80
2018-12-17T01:31:40.163Z,5.50
2018-12-17T01:34:08.202Z,5.20
2018-12-17T01:36:36.359Z,5.00
2018-12-17T01:39:06.346Z,5.10
2018-12-17T01:41:34.511Z,5.10
2018-12-17T01:44:02.751Z,5.10
2018-12-17T01:46:30.806Z,5.10
2018-12-17T01:48:58.778Z,5.20
2018-12-17T01:51:26.777Z,5.20
2018-12-17T01:53:54.917Z,5.40
2018-12-17T01:56:22.948Z,5.50
2018-12-17T01:58:51.049Z,5.50
2018-12-17T02:01:19.023Z,5.70
2018-12-17T02:03:47.053Z,5.60
2018-12-17T02:06:15.261Z,5.50
2018-12-17T02:08:43.544Z,5.60
2018-12-17T02:11:11.830Z,5.70
2018-12-17T02:13:39.939Z,5.90
2018-12-17T02:16:08.164Z,5.90
2018-12-17T02:18:36.285Z,6.00
2018-12-17T02:21:04.371Z,5.90
2018-12-17T02:23:32.425Z,5.40
2018-12-17T02:26:00.513Z,5.40
2018-12-17T02:28:28.586Z,5.50
2018-12-17T02:30:56.639Z,5.60
2018-12-17T02:33:24.778Z,5.40
2018-12-17T02:35:52.753Z,5.60
2018-12-17T02:38:20.804Z,5.80
2018-12-17T02:40:51.057Z,5.80
2018-12-17T02:43:19.200Z,5.90
2018-12-17T02:45:47.432Z,5.80
2018-12-17T02:48:15.519Z,5.90
2018-12-17T02:50:43.598Z,5.90
2018-12-17T02:53:11.831Z,5.70
2018-12-17T02:55:39.894Z,5.10
2018-12-17T02:58:08.082Z,5.40
2018-12-17T03:00:36.107Z,5.40
2018-12-17T03:03:04.414Z,5.30
2018-12-17T03:05:32.420Z,5.00
2018-12-17T03:08:00.599Z,5.20
2018-12-17T03:10:28.615Z,5.30
2018-12-17T03:12:56.731Z,5.40
2018-12-17T03:15:24.862Z,5.10
2018-12-17T03:17:52.938Z,4.80
2018-12-17T03:20:21.050Z,5.10
2018-12-17T03:22:49.156Z,5.40
2018-12-17T03:25:17.165Z,5.40
2018-12-17T03:27:45.159Z,5.40
2018-12-17T03:30:13.195Z,5.10
2018-12-17T03:32:41.300Z,5.50
2018-12-17T03:35:09.598Z,5.70
2018-12-17T03:37:37.648Z,6.00
2018-12-17T03:40:06.703Z,6.10
2018-12-17T03:42:34.852Z,6.00
2018-12-17T03:45:03.163Z,6.20
2018-12-17T03:47:31.187Z,6.10
2018-12-17T03:49:59.294Z,6.10
2018-12-17T03:52:27.398Z,6.20
2018-12-17T03:54:55.522Z,6.30
2018-12-17T03:57:23.771Z,6.30
2018-12-17T03:59:51.846Z,5.40
2018-12-17T04:02:19.864Z,5.60
2018-12-17T04:04:48.464Z,5.80
2018-12-17T04:07:16.607Z,5.80
2018-12-17T04:09:45.067Z,5.90
2018-12-17T04:12:13.174Z,5.80
2018-12-17T04:14:41.663Z,5.80
2018-12-17T04:17:09.725Z,5.80
2018-12-17T04:19:37.786Z,5.90
2018-12-17T04:22:05.787Z,5.90
2018-12-17T04:24:33.809Z,5.60
2018-12-17T04:27:01.868Z,5.50
2018-12-17T04:29:29.991Z,5.70
2018-12-17T04:31:57.961Z,5.70
2018-12-17T04:34:26.063Z,5.70
2018-12-17T04:36:54.125Z,5.70
2018-12-17T04:39:22.157Z,5.50
2018-12-17T04:41:50.242Z,5.30
2018-12-17T04:44:18.647Z,5.40
2018-12-17T04:46:46.684Z,5.40
2018-12-17T04:49:14.797Z,5.40
2018-12-17T04:51:42.894Z,5.40
2018-12-17T04:54:11.172Z,5.30
2018-12-17T04:56:39.274Z,5.30
2018-12-17T04:59:14.375Z,5.60
2018-12-17T05:01:37.731Z,5.70
2018-12-17T05:04:05.886Z,5.80
2018-12-17T05:06:33.866Z,5.90
2018-12-17T05:09:02.351Z,6.10
2018-12-17T05:11:30.370Z,5.60
2018-12-17T05:13:58.334Z,6.00
2018-12-17T05:16:26.532Z,6.20
2018-12-17T05:18:54.529Z,5.80
2018-12-17T05:21:22.946Z,5.70
2018-12-17T05:23:50.897Z,6.20
2018-12-17T05:26:19.089Z,6.40
2018-12-17T05:28:47.217Z,6.60
2018-12-17T05:31:15.390Z,6.40
2018-12-17T05:33:43.678Z,6.40
2018-12-17T05:36:12.411Z,6.30
2018-12-17T05:38:40.486Z,6.20
2018-12-17T05:41:08.608Z,6.10
2018-12-17T05:43:38.507Z,6.20
2018-12-17T05:46:07.362Z,6.30
2018-12-17T05:48:36.948Z,6.10
2018-12-17T05:51:05.116Z,5.60
2018-12-17T05:53:33.249Z,5.50
2018-12-17T05:56:02.532Z,5.70
2018-12-17T05:58:30.823Z,5.80
2018-12-17T06:01:06.986Z,5.40
2018-12-17T06:03:36.121Z,5.90
2018-12-17T06:06:04.422Z,5.90
2018-12-17T06:08:32.537Z,5.70
2018-12-17T06:11:01.282Z,5.80
2018-12-17T06:13:29.437Z,5.40
2018-12-17T06:15:57.500Z,5.60
2018-12-17T06:18:25.493Z,5.40
2018-12-17T06:20:53.851Z,5.50
2018-12-17T06:23:22.069Z,5.70
2018-12-17T06:25:50.152Z,5.60
2018-12-17T06:28:18.177Z,6.00
2018-12-17T06:30:46.219Z,5.90
2018-12-17T06:33:15.801Z,5.80
2018-12-17T06:35:44.028Z,5.50
2018-12-17T06:38:12.054Z,5.50
2018-12-17T06:40:40.074Z,5.30
2018-12-17T06:43:08.133Z,5.40
2018-12-17T06:45:36.202Z,5.50
2018-12-17T06:48:04.931Z,5.40
2018-12-17T06:50:33.250Z,5.70
2018-12-17T06:53:01.314Z,5.50
2018-12-17T06:55:29.385Z,5.70
2018-12-17T06:57:57.939Z,5.80
2018-12-17T07:00:26.281Z,5.80
2018-12-17T07:02:54.459Z,5.60
2018-12-17T07:05:22.482Z,5.50
2018-12-17T07:07:50.595Z,5.90
2018-12-17T07:10:18.668Z,6.10
2018-12-17T07:12:46.801Z,5.90
2018-12-17T07:15:14.973Z,5.90
2018-12-17T07:17:43.016Z,5.50
2018-12-17T07:20:11.836Z,5.60
2018-12-17T07:22:40.005Z,5.70
2018-12-17T07:25:08.158Z,5.90
2018-12-17T07:27:36.220Z,5.90
2018-12-17T07:30:05.327Z,6.10
2018-12-17T07:32:33.397Z,6.10
2018-12-17T07:35:01.482Z,6.20
2018-12-17T07:37:30.049Z,6.20
2018-12-17T07:39:58.227Z,6.00
2018-12-17T07:42:26.309Z,5.90
2018-12-17T07:44:54.465Z,6.10
2018-12-17T07:47:22.534Z,5.90
2018-12-17T07:49:50.618Z,5.90
2018-12-17T07:52:18.663Z,6.10
2018-12-17T07:54:46.878Z,5.90
2018-12-17T07:57:15.028Z,6.00
2018-12-17T07:59:43.218Z,5.70
2018-12-17T08:02:11.605Z,5.50
2018-12-17T08:04:39.750Z,5.50
2018-12-17T08:07:07.863Z,5.40
2018-12-17T08:09:36.513Z,5.70
2018-12-17T08:12:04.749Z,5.40
2018-12-17T08:14:32.918Z,5.10
2018-12-17T08:17:01.453Z,5.50
2018-12-17T08:19:29.740Z,5.50
2018-12-17T08:21:57.961Z,5.50
2018-12-17T08:24:25.982Z,5.80
2018-12-17T08:26:54.152Z,5.50
2018-12-17T08:29:22.306Z,5.50
2018-12-17T08:31:50.428Z,5.40
2018-12-17T08:34:18.874Z,5.90
2018-12-17T08:36:46.993Z,5.70
2018-12-17T08:39:15.148Z,5.50
2018-12-17T08:41:43.383Z,5.30
2018-12-17T08:44:11.690Z,4.90
2018-12-17T08:46:39.796Z,5.50
2018-12-17T08:49:07.884Z,5.50
2018-12-17T08:51:36.185Z,5.30
2018-12-17T08:54:04.388Z,5.20
2018-12-17T08:56:32.539Z,5.40
2018-12-17T08:59:00.668Z,5.80
2018-12-17T09:01:28.733Z,5.60
2018-12-17T09:03:56.853Z,6.10
2018-12-17T09:06:25.009Z,5.70
2018-12-17T09:08:53.134Z,5.60
2018-12-17T09:11:21.213Z,5.50
2018-12-17T09:13:49.407Z,5.50
2018-12-17T09:16:17.500Z,5.40
2018-12-17T09:18:45.670Z,5.40
2018-12-17T09:21:13.995Z,5.60
2018-12-17T09:23:42.253Z,5.70
2018-12-17T09:26:10.334Z,5.40
2018-12-17T09:28:38.680Z,5.60
2018-12-17T09:31:06.785Z,5.70
2018-12-17T09:33:35.183Z,6.00
2018-12-17T09:36:03.306Z,6.20
2018-12-17T09:38:31.476Z,6.40
2018-12-17T09:40:59.631Z,6.20
2018-12-17T09:43:28.427Z,6.30
2018-12-17T09:45:56.624Z,5.90
2018-12-17T09:48:24.726Z,6.20
2018-12-17T09:50:53.187Z,6.30
2018-12-17T09:53:21.368Z,6.30
2018-12-17T09:55:49.519Z,6.20
2018-12-17T09:58:17.661Z,6.50
2018-12-17T10:00:45.822Z,6.30
2018-12-17T10:03:14.286Z,6.60
2018-12-17T10:05:42.473Z,6.00
2018-12-17T10:08:10.855Z,5.90
2018-12-17T10:10:39.443Z,6.20
2018-12-17T10:13:07.627Z,6.20
2018-12-17T10:15:35.714Z,6.40
2018-12-17T10:18:03.910Z,6.50
2018-12-17T10:20:32.013Z,6.50
2018-12-17T10:23:00.144Z,6.40
2018-12-17T10:25:28.347Z,6.30
2018-12-17T10:27:56.435Z,6.50
2018-12-17T10:30:24.546Z,6.40
2018-12-17T10:32:52.712Z,6.40
2018-12-17T10:35:20.847Z,6.20
2018-12-17T10:37:48.885Z,6.40
2018-12-17T10:40:17.002Z,6.40
2018-12-17T10:42:45.432Z,6.50
2018-12-17T10:45:13.861Z,6.50
2018-12-17T10:47:42.099Z,6.10
2018-12-17T10:50:10.607Z,6.10
2018-12-17T10:52:38.810Z,6.80
2018-12-17T10:55:07.189Z,6.70
2018-12-17T10:57:35.278Z,6.10
2018-12-17T11:00:05.322Z,6.00
2018-12-17T11:02:34.599Z,6.40
2018-12-17T11:05:12.735Z,6.50
2018-12-17T11:07:40.886Z,6.40
2018-12-17T11:10:09.674Z,6.20
2018-12-17T11:12:38.278Z,6.00
2018-12-17T11:15:09.391Z,6.10
2018-12-17T11:17:37.557Z,6.20
2018-12-17T11:20:08.871Z,6.50
2018-12-17T11:22:37.070Z,6.00
2018-12-17T11:25:06.288Z,6.00
2018-12-17T11:27:34.615Z,6.50
2018-12-17T11:30:03.582Z,6.10
2018-12-17T11:32:31.680Z,6.30
2018-12-17T11:34:59.759Z,6.30
2018-12-17T11:37:27.911Z,6.30
2018-12-17T11:39:56.090Z,6.20
2018-12-17T11:42:24.217Z,6.10
2018-12-17T11:44:52.427Z,6.20
2018-12-17T11:47:20.622Z,6.30
2018-12-17T11:49:48.834Z,6.20
2018-12-17T11:52:17.111Z,6.20
2018-12-17T11:54:45.449Z,6.60
2018-12-17T11:58:13.071Z,5.90
2018-12-17T12:00:53.725Z,6.40
2018-12-17T12:03:19.839Z,6.40
2018-12-17T12:05:48.015Z,6.20
2018-12-17T12:08:16.308Z,6.10
2018-12-17T12:10:44.421Z,6.00
2018-12-17T12:13:12.609Z,6.70
2018-12-17T12:15:40.835Z,6.80
2018-12-17T12:18:08.938Z,6.40
2018-12-17T12:20:37.285Z,6.40
2018-12-17T12:23:05.421Z,6.30
2018-12-17T12:25:33.626Z,6.20
2018-12-17T12:28:01.879Z,6.30
2018-12-17T12:30:30.084Z,6.30
2018-12-17T12:32:58.202Z,6.80
2018-12-17T12:35:26.408Z,6.60
2018-12-17T12:37:54.663Z,6.10
2018-12-17T12:40:22.755Z,6.20
2018-12-17T12:42:51.717Z,6.60
2018-12-17T12:45:20.248Z,6.50
2018-12-17T12:47:48.394Z,6.80
2018-12-17T12:50:16.687Z,6.50
2018-12-17T12:52:44.758Z,6.60
2018-12-17T12:55:12.939Z,6.70
2018-12-17T12:57:40.953Z,6.60
2018-12-17T13:00:13.425Z,6.50
2018-12-17T13:02:41.575Z,6.70
2018-12-17T13:05:09.731Z,6.90
2018-12-17T13:07:37.776Z,6.70
2018-12-17T13:10:10.039Z,7.00
2018-12-17T13:12:38.335Z,7.10
2018-12-17T13:15:08.763Z,6.90
2018-12-17T13:17:37.330Z,6.90
2018-12-17T13:20:08.471Z,6.90
2018-12-17T13:22:36.723Z,7.10
2018-12-17T13:25:08.203Z,7.10
2018-12-17T13:27:36.495Z,7.10
2018-12-17T13:30:08.030Z,7.50
2018-12-17T13:32:36.335Z,7.50
2018-12-17T13:35:05.803Z,7.10
2018-12-17T13:37:34.045Z,7.10
2018-12-17T13:40:02.301Z,7.30
2018-12-17T13:42:30.541Z,6.80
2018-12-17T13:44:59.480Z,6.90
2018-12-17T13:47:27.783Z,7.10
2018-12-17T13:49:58.537Z,7.00
2018-12-17T13:52:32.318Z,7.00
2018-12-17T13:55:00.452Z,6.70
2018-12-17T13:57:28.678Z,6.60
2018-12-17T13:59:56.739Z,7.00
2018-12-17T14:02:24.934Z,6.60
2018-12-17T14:04:53.221Z,6.90
2018-12-17T14:07:21.495Z,6.90
2018-12-17T14:09:55.496Z,6.80
2018-12-17T14:12:23.659Z,6.60
2018-12-17T14:14:51.834Z,6.60
2018-12-17T14:17:25.816Z,7.20
2018-12-17T14:19:59.649Z,7.00
2018-12-17T14:22:27.777Z,6.80
2018-12-17T14:24:55.949Z,6.90
2018-12-17T14:27:24.183Z,6.80
2018-12-17T14:29:52.980Z,6.80
2018-12-17T14:32:21.418Z,7.00
2018-12-17T14:34:49.950Z,6.50
2018-12-17T14:37:18.276Z,6.60
2018-12-17T14:39:46.452Z,6.80
2018-12-17T14:42:14.777Z,7.10
2018-12-17T14:44:43.040Z,7.00
2018-12-17T14:47:11.440Z,7.00
2018-12-17T14:49:39.676Z,7.00
2018-12-17T14:52:07.948Z,6.90
2018-12-17T14:54:36.169Z,7.20
2018-12-17T14:57:04.454Z,7.00
2018-12-17T14:59:32.660Z,7.10
2018-12-17T15:02:00.857Z,7.00
2018-12-17T15:04:29.064Z,7.40
2018-12-17T15:06:57.183Z,7.40
2018-12-17T15:09:25.394Z,7.30
2018-12-17T15:11:53.517Z,7.00
2018-12-17T15:14:21.690Z,7.00
2018-12-17T15:16:49.849Z,7.10
2018-12-17T15:19:17.901Z,7.00
2018-12-17T15:21:46.175Z,6.90
2018-12-17T15:24:14.334Z,7.30
2018-12-17T15:26:42.592Z,7.20
2018-12-17T15:29:10.874Z,7.50
2018-12-17T15:31:42.958Z,7.30
2018-12-17T15:34:09.435Z,7.50
2018-12-17T15:36:37.582Z,7.20
2018-12-17T15:39:06.498Z,7.40
2018-12-17T15:41:34.910Z,7.40
2018-12-17T15:44:03.610Z,7.60
2018-12-17T15:46:31.822Z,7.70
2018-12-17T15:49:00.028Z,7.70
2018-12-17T15:51:28.271Z,7.60
2018-12-17T15:53:58.478Z,7.70
2018-12-17T15:56:26.754Z,7.90
2018-12-17T15:58:54.914Z,7.80
2018-12-17T16:01:23.226Z,8.10
2018-12-17T16:03:51.392Z,7.60
2018-12-17T16:06:19.566Z,8.00
2018-12-17T16:08:47.864Z,8.10
2018-12-17T16:11:16.183Z,7.10
2018-12-17T16:13:44.373Z,7.80
2018-12-17T16:16:12.576Z,7.80
2018-12-17T16:18:42.069Z,7.60
2018-12-17T16:21:10.384Z,7.70
2018-12-17T16:23:38.541Z,8.20
2018-12-17T16:26:06.806Z,8.20
2018-12-17T16:28:34.914Z,7.90
2018-12-17T16:31:03.130Z,8.50
2018-12-17T16:33:31.385Z,8.10
2018-12-17T16:35:59.592Z,8.10
2018-12-17T16:38:27.788Z,8.60
2018-12-17T16:40:55.948Z,8.90
2018-12-17T16:43:24.068Z,8.50
2018-12-17T16:45:52.262Z,8.80
2018-12-17T16:48:20.486Z,8.20
2018-12-17T16:50:48.711Z,8.40
2018-12-17T16:53:16.956Z,8.50
2018-12-17T16:55:45.118Z,7.90
2018-12-17T16:58:13.379Z,7.70
2018-12-17T17:00:41.805Z,7.70
2018-12-17T17:03:10.126Z,7.70
2018-12-17T17:05:38.393Z,7.90
2018-12-17T17:08:06.506Z,7.50
2018-12-17T17:10:34.764Z,7.80
2018-12-17T17:13:03.321Z,7.70
2018-12-17T17:15:31.680Z,7.70
2018-12-17T17:18:00.019Z,7.70
2018-12-17T17:20:28.264Z,7.60
2018-12-17T17:22:56.516Z,7.60
2018-12-17T17:25:24.896Z,7.50
2018-12-17T17:27:53.133Z,6.80
2018-12-17T17:30:21.460Z,7.10
2018-12-17T17:32:49.678Z,7.10
2018-12-17T17:35:17.954Z,7.10
2018-12-17T17:37:46.176Z,7.50
2018-12-17T17:40:14.491Z,7.50
2018-12-17T17:42:42.678Z,7.20
2018-12-17T17:45:10.871Z,7.30
2018-12-17T17:47:39.219Z,7.20
2018-12-17T17:50:07.765Z,7.40
2018-12-17T17:52:36.069Z,7.50
2018-12-17T17:55:04.675Z,7.40
2018-12-17T17:57:32.941Z,7.50
2018-12-17T18:00:01.327Z,7.50
2018-12-17T18:02:29.668Z,7.30
2018-12-17T18:04:58.082Z,7.50
2018-12-17T18:07:26.610Z,7.60
2018-12-17T18:09:55.796Z,7.40
2018-12-17T18:12:24.194Z,7.60
2018-12-17T18:14:52.571Z,7.50
2018-12-17T18:17:21.041Z,7.30
2018-12-17T18:19:49.867Z,7.40
2018-12-17T18:22:18.402Z,7.30
2018-12-17T18:24:47.061Z,7.50
2018-12-17T18:27:15.454Z,7.60
2018-12-17T18:29:43.634Z,7.30
2018-12-17T18:32:12.028Z,7.20
2018-12-17T18:34:40.197Z,7.50
2018-12-17T18:37:08.477Z,7.50
2018-12-17T18:39:36.847Z,7.40
2018-12-17T18:42:05.242Z,7.60
2018-12-17T18:44:33.822Z,7.30
2018-12-17T18:47:02.153Z,7.30
2018-12-17T18:49:30.512Z,7.40
2018-12-17T18:51:58.791Z,7.60
2018-12-17T18:54:27.218Z,7.40
2018-12-17T18:56:55.489Z,7.40
2018-12-17T18:59:23.872Z,7.40
2018-12-17T19:01:52.285Z,7.20
2018-12-17T19:04:21.023Z,7.40
2018-12-17T19:06:49.363Z,7.40
2018-12-17T19:09:17.788Z,7.40
2018-12-17T19:11:46.034Z,7.60
2018-12-17T19:14:14.451Z,7.70
2018-12-17T19:16:42.789Z,7.60
2018-12-17T19:19:11.000Z,7.40
2018-12-17T19:21:40.552Z,7.50
2018-12-17T19:24:08.942Z,7.70
2018-12-17T19:26:37.779Z,7.50
2018-12-17T19:29:06.220Z,7.60
2018-12-17T19:31:34.945Z,7.40
2018-12-17T19:34:03.381Z,7.50
2018-12-17T19:36:31.770Z,7.30
2018-12-17T19:39:00.342Z,7.70
2018-12-17T19:41:28.815Z,7.40
2018-12-17T19:43:57.042Z,7.60
2018-12-17T19:46:25.372Z,7.40
2018-12-17T19:48:53.783Z,7.20
2018-12-17T19:51:22.237Z,7.20
2018-12-17T19:53:50.693Z,7.20
2018-12-17T19:56:19.161Z,7.30
2018-12-17T19:58:47.585Z,7.60
2018-12-17T20:01:15.962Z,7.70
2018-12-17T20:03:44.555Z,7.40
2018-12-17T20:06:12.891Z,7.40
2018-12-17T20:08:41.281Z,7.30
2018-12-17T20:11:09.626Z,7.00
2018-12-17T20:13:37.965Z,7.10
2018-12-17T20:16:06.412Z,7.50
2018-12-17T20:18:34.690Z,7.20
2018-12-17T20:21:03.416Z,7.20
2018-12-17T20:23:32.036Z,7.20
2018-12-17T20:26:00.669Z,7.20
2018-12-17T20:28:29.606Z,7.30
2018-12-17T20:30:58.162Z,7.30
2018-12-17T20:33:26.635Z,7.30
2018-12-17T20:35:54.993Z,7.60
2018-12-17T20:38:23.262Z,7.40
2018-12-17T20:40:52.312Z,7.50
2018-12-17T20:43:20.809Z,7.50
2018-12-17T20:45:49.406Z,7.20
2018-12-17T20:48:17.800Z,7.00
2018-12-17T20:50:47.113Z,7.00
2018-12-17T20:53:15.498Z,7.10
2018-12-17T20:55:44.170Z,7.30
2018-12-17T20:58:12.795Z,7.30
2018-12-17T21:00:41.109Z,7.10
2018-12-17T21:03:09.721Z,7.40
2018-12-17T21:05:38.022Z,7.20
2018-12-17T21:08:08.266Z,7.20
2018-12-17T21:10:36.799Z,7.80
2018-12-17T21:13:05.192Z,7.30
2018-12-17T21:15:38.785Z,7.40
2018-12-17T21:18:07.364Z,7.30
2018-12-17T21:20:35.748Z,7.10
2018-12-17T21:25:52.491Z,7.50
2018-12-17T21:28:20.747Z,7.30
2018-12-17T21:30:49.464Z,7.20
2018-12-17T21:33:18.080Z,7.20
2018-12-17T21:35:46.668Z,7.30
2018-12-17T21:38:15.289Z,7.40
2018-12-17T21:40:43.964Z,7.40
2018-12-17T21:43:12.835Z,7.00
2018-12-17T21:45:41.605Z,6.90
2018-12-17T21:48:10.346Z,6.80
2018-12-17T21:50:38.752Z,7.10
2018-12-17T21:53:07.599Z,7.20
2018-12-17T21:55:36.068Z,7.30
2018-12-17T21:58:04.644Z,7.20
2018-12-17T22:00:33.262Z,7.20
2018-12-17T22:03:02.085Z,7.00
2018-12-17T22:05:30.771Z,7.20
2018-12-17T22:07:59.165Z,7.30
2018-12-17T22:10:32.456Z,7.30
2018-12-17T22:13:00.834Z,7.00
2018-12-17T22:15:29.146Z,7.30
2018-12-17T22:17:57.875Z,7.30
2018-12-17T22:20:26.124Z,7.50
2018-12-17T22:22:54.659Z,7.60
2018-12-17T22:25:22.859Z,7.50
2018-12-17T22:27:51.103Z,7.40
2018-12-17T22:30:19.349Z,7.20
2018-12-17T22:32:47.688Z,7.40
2018-12-17T22:35:16.079Z,7.50
2018-12-17T22:37:44.359Z,7.40
2018-12-17T22:40:12.688Z,7.20
2018-12-17T22:42:40.864Z,7.40
2018-12-17T22:45:09.188Z,7.30
2018-12-17T22:47:37.471Z,7.00
2018-12-17T22:50:06.757Z,7.00
2018-12-17T22:52:34.965Z,7.20
2018-12-17T22:55:03.448Z,7.50
2018-12-17T22:57:31.738Z,7.30
2018-12-17T23:00:00.092Z,7.40
2018-12-17T23:02:28.492Z,7.20
2018-12-17T23:04:56.654Z,7.00
2018-12-17T23:07:25.852Z,7.10
2018-12-17T23:10:11.121Z,7.40
2018-12-17T23:12:56.454Z,7.50
2018-12-17T23:15:41.781Z,7.10
2018-12-17T23:18:08.413Z,7.10
2018-12-17T23:20:36.807Z,7.50
2018-12-17T23:23:05.029Z,7.00
2018-12-17T23:25:33.684Z,7.00
2018-12-17T23:28:02.094Z,7.10
2018-12-17T23:30:30.338Z,7.20
2018-12-17T23:32:59.264Z,7.20
2018-12-17T23:35:27.686Z,7.10
2018-12-17T23:37:55.853Z,7.40
2018-12-17T23:40:24.057Z,7.40
2018-12-17T23:42:52.206Z,7.70
2018-12-17T23:45:20.628Z,7.40
2018-12-17T23:47:48.977Z,7.60
2018-12-17T23:50:17.855Z,7.30
2018-12-17T23:52:45.994Z,7.10
2018-12-17T23:55:14.119Z,7.30
2018-12-17T23:57:42.295Z,7.40
